createdAt,value
2022-08-28T00:00:24.575Z,10.73
2022-08-28T00:02:51.416Z,9.87
2022-08-28T00:05:19.001Z,9.90
2022-08-28T00:07:47.922Z,10.13
2022-08-28T00:10:16.777Z,10.20
2022-08-28T00:12:43.685Z,10.90
2022-08-28T00:15:11.947Z,10.40
2022-08-28T00:17:40.139Z,10.03
2022-08-28T00:20:07.908Z,10.53
2022-08-28T00:22:34.389Z,11.30
2022-08-28T00:25:00.834Z,10.33
2022-08-28T00:27:45.919Z,10.70
2022-08-28T00:30:12.633Z,9.93
2022-08-28T00:32:39.009Z,9.90
2022-08-28T00:35:06.645Z,10.87
2022-08-28T00:37:33.632Z,9.97
2022-08-28T00:40:00.089Z,10.07
2022-08-28T00:42:27.249Z,10.13
2022-08-28T00:44:53.646Z,10.17
2022-08-28T00:47:20.048Z,9.87
2022-08-28T00:49:51.035Z,10.17
2022-08-28T00:52:18.746Z,10.30
2022-08-28T00:54:58.405Z,10.90
2022-08-28T00:57:27.975Z,9.80
2022-08-28T00:59:54.575Z,11.23
2022-08-28T01:02:21.382Z,11.20
2022-08-28T01:04:48.877Z,10.77
2022-08-28T01:07:15.714Z,10.10
2022-08-28T01:09:44.501Z,9.90
2022-08-28T01:12:13.621Z,9.37
2022-08-28T01:14:41.053Z,9.70
2022-08-28T01:17:08.405Z,10.03
2022-08-28T01:19:38.049Z,9.43
2022-08-28T01:22:23.280Z,9.70
2022-08-28T01:24:50.740Z,9.73
2022-08-28T01:27:17.416Z,9.53
2022-08-28T01:29:44.793Z,9.53
2022-08-28T01:32:14.838Z,9.43
2022-08-28T01:34:41.317Z,10.33
2022-08-28T01:37:07.725Z,10.33
2022-08-28T01:39:34.193Z,9.80
2022-08-28T01:42:02.519Z,9.93
2022-08-28T01:44:28.990Z,9.87
2022-08-28T01:46:56.340Z,9.97
2022-08-28T01:49:24.465Z,9.43
2022-08-28T01:51:50.875Z,9.27
2022-08-28T01:54:18.763Z,8.80
2022-08-28T01:56:45.637Z,9.10
2022-08-28T01:59:12.164Z,8.80
2022-08-28T02:01:39.929Z,8.73
2022-08-28T02:04:06.643Z,8.87
2022-08-28T02:06:33.894Z,8.90
2022-08-28T02:09:00.432Z,9.10
2022-08-28T02:11:27.511Z,8.87
2022-08-28T02:13:54.434Z,9.37
2022-08-28T02:16:23.182Z,9.37
2022-08-28T02:18:49.627Z,8.73
2022-08-28T02:21:16.031Z,10.27
2022-08-28T02:23:43.149Z,8.80
2022-08-28T02:26:10.191Z,9.00
2022-08-28T02:28:37.448Z,8.93
2022-08-28T02:31:05.841Z,8.73
2022-08-28T02:33:32.312Z,9.00
2022-08-28T02:35:58.713Z,8.83
2022-08-28T02:38:25.161Z,8.40
2022-08-28T02:40:52.756Z,8.17
2022-08-28T02:43:19.552Z,8.97
2022-08-28T02:45:45.943Z,8.53
2022-08-28T02:48:17.157Z,8.60
2022-08-28T02:50:44.448Z,7.90
2022-08-28T02:53:11.612Z,8.87
2022-08-28T02:55:38.028Z,8.47
2022-08-28T02:58:06.608Z,9.40
2022-08-28T03:00:33.023Z,8.77
2022-08-28T03:02:59.515Z,9.37
2022-08-28T03:05:25.936Z,9.30
2022-08-28T03:07:55.747Z,9.47
2022-08-28T03:10:22.466Z,8.80
2022-08-28T03:12:49.336Z,8.43
2022-08-28T03:15:17.120Z,8.57
2022-08-28T03:17:43.669Z,9.07
2022-08-28T03:20:11.468Z,9.10
2022-08-28T03:22:56.845Z,8.77
2022-08-28T03:25:24.587Z,7.60
2022-08-28T03:27:51.590Z,8.57
2022-08-28T03:30:18.776Z,6.90
2022-08-28T03:32:45.264Z,7.13
2022-08-28T03:35:12.041Z,6.97
2022-08-28T03:37:38.821Z,6.80
2022-08-28T03:40:06.359Z,6.80
2022-08-28T03:42:33.871Z,6.40
2022-08-28T03:45:00.457Z,6.50
2022-08-28T03:47:28.306Z,6.50
2022-08-28T03:49:56.963Z,6.00
2022-08-28T03:52:23.955Z,5.80
2022-08-28T03:54:50.867Z,5.63
2022-08-28T03:57:19.010Z,6.70
2022-08-28T03:59:46.695Z,5.80
2022-08-28T04:02:13.103Z,6.33
2022-08-28T04:04:39.562Z,5.90
2022-08-28T04:07:05.962Z,6.63
2022-08-28T04:09:32.431Z,6.80
2022-08-28T04:11:58.825Z,7.30
2022-08-28T04:14:25.265Z,6.63
2022-08-28T04:16:51.676Z,7.20
2022-08-28T04:19:18.173Z,7.63
2022-08-28T04:21:44.723Z,7.83
2022-08-28T04:24:13.701Z,8.20
2022-08-28T04:26:41.957Z,8.70
2022-08-28T04:29:08.432Z,8.13
2022-08-28T04:31:35.530Z,7.67
2022-08-28T04:34:03.453Z,7.87
2022-08-28T04:36:29.851Z,7.77
2022-08-28T04:38:57.532Z,7.50
2022-08-28T04:41:23.903Z,8.13
2022-08-28T04:43:52.716Z,7.67
2022-08-28T04:46:19.127Z,7.20
2022-08-28T04:48:45.569Z,6.97
2022-08-28T04:51:14.920Z,7.13
2022-08-28T04:53:41.787Z,7.40
2022-08-28T04:56:11.357Z,7.47
2022-08-28T04:58:38.450Z,6.80
2022-08-28T05:01:11.152Z,6.43
2022-08-28T05:03:37.683Z,6.77
2022-08-28T05:06:04.563Z,6.80
2022-08-28T05:08:31.348Z,6.10
2022-08-28T05:10:58.068Z,5.97
2022-08-28T05:13:25.314Z,5.83
2022-08-28T05:15:52.537Z,6.00
2022-08-28T05:18:21.200Z,5.37
2022-08-28T05:20:48.138Z,5.70
2022-08-28T05:23:15.523Z,5.03
2022-08-28T05:25:44.568Z,5.10
2022-08-28T05:28:12.157Z,5.00
2022-08-28T05:30:39.822Z,5.93
2022-08-28T05:33:06.811Z,4.87
2022-08-28T05:35:34.256Z,5.07
2022-08-28T05:38:00.618Z,5.70
2022-08-28T05:40:27.269Z,4.53
2022-08-28T05:42:53.700Z,4.70
2022-08-28T05:45:22.508Z,4.93
2022-08-28T05:47:49.022Z,4.60
2022-08-28T05:50:15.477Z,4.20
2022-08-28T05:52:42.841Z,4.60
2022-08-28T05:55:10.312Z,4.50
2022-08-28T05:57:36.706Z,4.60
2022-08-28T06:00:03.707Z,4.13
2022-08-28T06:02:30.928Z,4.27
2022-08-28T06:04:57.766Z,4.10
2022-08-28T06:07:24.263Z,4.80
2022-08-28T06:09:50.728Z,4.87
2022-08-28T06:12:17.083Z,4.57
2022-08-28T06:14:44.955Z,4.47
2022-08-28T06:17:11.364Z,4.77
2022-08-28T06:19:41.301Z,4.73
2022-08-28T06:22:09.641Z,4.23
2022-08-28T06:24:36.619Z,5.10
2022-08-28T06:27:03.054Z,4.23
2022-08-28T06:29:29.578Z,4.43
2022-08-28T06:31:56.942Z,4.27
2022-08-28T06:34:23.394Z,3.93
2022-08-28T06:36:53.837Z,4.67
2022-08-28T06:39:20.858Z,4.57
2022-08-28T06:41:47.316Z,5.13
2022-08-28T06:44:21.274Z,4.40
2022-08-28T06:46:48.846Z,4.80
2022-08-28T06:49:15.471Z,3.97
2022-08-28T06:51:41.934Z,4.10
2022-08-28T06:54:08.835Z,4.37
2022-08-28T06:56:35.342Z,4.47
2022-08-28T06:59:02.031Z,4.20
2022-08-28T07:01:33.255Z,4.17
2022-08-28T07:04:01.568Z,4.47
2022-08-28T07:06:30.538Z,4.23
2022-08-28T07:08:56.925Z,4.00
2022-08-28T07:11:28.649Z,4.40
2022-08-28T07:13:55.586Z,4.30
2022-08-28T07:16:23.483Z,3.60
2022-08-28T07:18:49.913Z,3.97
2022-08-28T07:21:16.297Z,3.90
2022-08-28T07:23:44.027Z,3.97
2022-08-28T07:26:15.668Z,4.10
2022-08-28T07:28:42.331Z,4.30
2022-08-28T07:31:13.420Z,3.50
2022-08-28T07:33:40.465Z,4.17
2022-08-28T07:36:08.900Z,4.93
2022-08-28T07:38:42.641Z,4.30
2022-08-28T07:41:16.572Z,3.00
2022-08-28T07:44:01.743Z,3.30
2022-08-28T07:46:29.178Z,3.23
2022-08-28T07:48:57.804Z,3.30
2022-08-28T07:51:24.730Z,3.40
2022-08-28T07:53:52.218Z,3.27
2022-08-28T07:56:18.990Z,3.53
2022-08-28T07:58:45.461Z,3.20
2022-08-28T08:01:12.097Z,2.60
2022-08-28T08:03:38.513Z,2.80
2022-08-28T08:06:05.550Z,2.67
2022-08-28T08:08:33.515Z,2.93
2022-08-28T08:11:01.235Z,2.80
2022-08-28T08:13:29.568Z,2.80
2022-08-28T08:16:07.882Z,2.27
2022-08-28T08:18:34.373Z,2.90
2022-08-28T08:21:01.457Z,2.70
2022-08-28T08:23:28.189Z,2.47
2022-08-28T08:25:55.740Z,2.80
2022-08-28T08:28:22.330Z,2.60
2022-08-28T08:30:48.774Z,2.57
2022-08-28T08:33:15.230Z,2.77
2022-08-28T08:35:41.675Z,2.70
2022-08-28T08:38:10.016Z,2.87
2022-08-28T08:40:36.492Z,3.20
2022-08-28T08:43:03.217Z,2.70
2022-08-28T08:45:31.055Z,3.00
2022-08-28T08:47:57.485Z,3.13
2022-08-28T08:50:24.084Z,2.90
2022-08-28T08:52:59.639Z,2.97
2022-08-28T08:55:31.946Z,2.90
2022-08-28T08:58:01.165Z,2.83
2022-08-28T09:00:28.675Z,2.73
2022-08-28T09:03:13.062Z,2.67
2022-08-28T09:05:47.409Z,2.70
2022-08-28T09:08:18.472Z,2.90
2022-08-28T09:10:51.662Z,3.40
2022-08-28T09:13:23.593Z,2.60
2022-08-28T09:15:51.078Z,2.70
2022-08-28T09:18:22.400Z,3.07
2022-08-28T09:20:52.956Z,2.43
2022-08-28T09:23:21.029Z,3.00
2022-08-28T09:25:50.908Z,2.93
2022-08-28T09:28:26.398Z,3.20
2022-08-28T09:31:20.277Z,2.97
2022-08-28T09:33:48.221Z,3.17
2022-08-28T09:36:21.067Z,3.13
2022-08-28T09:38:54.164Z,2.80
2022-08-28T09:41:39.030Z,2.83
2022-08-28T09:44:05.425Z,2.80
2022-08-28T09:46:32.380Z,2.83
2022-08-28T09:49:10.120Z,2.87
2022-08-28T09:51:38.752Z,2.53
2022-08-28T09:54:23.949Z,2.67
2022-08-28T09:56:50.574Z,2.90
2022-08-28T09:59:19.024Z,2.90
2022-08-28T10:02:04.391Z,2.43
2022-08-28T10:04:54.189Z,2.40
2022-08-28T10:07:23.315Z,3.37
2022-08-28T10:09:58.811Z,3.03
2022-08-28T10:12:31.197Z,2.83
2022-08-28T10:15:05.298Z,2.53
2022-08-28T10:17:43.916Z,2.83
2022-08-28T10:20:15.632Z,2.47
2022-08-28T10:22:48.136Z,2.73
2022-08-28T10:25:29.017Z,2.53
2022-08-28T10:28:05.383Z,2.80
2022-08-28T10:30:34.487Z,2.67
2022-08-28T10:33:11.795Z,2.30
2022-08-28T10:35:45.011Z,2.60
2022-08-28T10:38:19.828Z,2.93
2022-08-28T10:40:55.191Z,2.77
2022-08-28T10:43:40.308Z,2.73
2022-08-28T10:46:12.027Z,2.87
2022-08-28T10:48:42.626Z,2.43
2022-08-28T10:51:16.259Z,3.00
2022-08-28T10:53:49.987Z,3.00
2022-08-28T10:56:17.769Z,3.07
2022-08-28T10:58:47.204Z,2.73
2022-08-28T11:01:14.767Z,2.87
2022-08-28T11:03:51.688Z,2.53
2022-08-28T11:06:34.006Z,2.87
2022-08-28T11:09:22.224Z,2.90
2022-08-28T11:11:49.075Z,3.03
2022-08-28T11:14:48.076Z,2.87
2022-08-28T11:17:33.314Z,2.77
2022-08-28T11:19:59.768Z,2.40
2022-08-28T11:22:34.749Z,2.77
2022-08-28T11:25:09.428Z,2.43
2022-08-28T11:27:37.328Z,2.63
2022-08-28T11:30:09.599Z,3.10
2022-08-28T11:32:48.265Z,2.90
2022-08-28T11:35:20.728Z,2.73
2022-08-28T11:37:48.792Z,3.13
2022-08-28T11:40:21.278Z,8.60
2022-08-28T11:42:50.484Z,15.17
2022-08-28T11:45:40.164Z,12.13
2022-08-28T11:48:28.986Z,16.90
2022-08-28T11:51:02.208Z,4.37
2022-08-28T11:53:31.710Z,4.07
2022-08-28T11:56:07.411Z,3.53
2022-08-28T11:58:38.158Z,3.13
2022-08-28T12:01:07.563Z,3.37
2022-08-28T12:03:38.736Z,3.27
2022-08-28T12:06:05.965Z,3.92
2022-08-28T12:08:44.685Z,6.43
2022-08-28T12:11:31.051Z,3.10
2022-08-28T12:13:57.869Z,2.85
2022-08-28T12:16:24.560Z,3.13
2022-08-28T12:18:51.012Z,3.10
2022-08-28T12:21:25.418Z,2.60
2022-08-28T12:24:10.639Z,3.05
2022-08-28T12:26:47.056Z,2.80
2022-08-28T12:29:22.619Z,2.65
2022-08-28T12:32:14.408Z,2.58
2022-08-28T12:34:43.296Z,2.63
2022-08-28T12:37:30.771Z,6.50
2022-08-28T12:40:18.914Z,2.60
2022-08-28T12:42:54.888Z,2.42
2022-08-28T12:45:30.638Z,2.80
2022-08-28T12:48:00.007Z,2.80
2022-08-28T12:50:34.863Z,3.10
2022-08-28T12:53:03.680Z,3.10
2022-08-28T12:55:31.178Z,2.70
2022-08-28T12:57:57.841Z,2.80
2022-08-28T13:00:26.031Z,3.10
2022-08-28T13:02:54.420Z,3.03
2022-08-28T13:05:23.468Z,3.40
2022-08-28T13:07:54.107Z,2.90
2022-08-28T13:10:20.547Z,3.27
2022-08-28T13:12:55.898Z,3.27
2022-08-28T13:15:42.414Z,3.00
2022-08-28T13:18:09.227Z,2.80
2022-08-28T13:20:36.750Z,5.83
2022-08-28T13:23:03.836Z,5.77
2022-08-28T13:25:34.428Z,3.93
2022-08-28T13:28:03.055Z,3.33
2022-08-28T13:30:30.817Z,4.20
2022-08-28T13:33:17.207Z,4.00
2022-08-28T13:35:43.642Z,3.13
2022-08-28T13:38:11.531Z,3.33
2022-08-28T13:43:28.613Z,3.73
2022-08-28T13:45:55.077Z,2.70
2022-08-28T13:48:23.118Z,2.63
2022-08-28T13:50:50.935Z,3.30
2022-08-28T13:53:19.353Z,2.97
2022-08-28T13:55:46.035Z,3.20
2022-08-28T13:58:13.876Z,2.97
2022-08-28T14:00:43.091Z,2.93
2022-08-28T14:03:28.393Z,3.10
2022-08-28T14:05:54.825Z,2.60
2022-08-28T14:08:21.897Z,2.50
2022-08-28T14:10:48.754Z,3.07
2022-08-28T14:13:15.371Z,3.40
2022-08-28T14:15:41.758Z,2.40
2022-08-28T14:18:08.156Z,2.77
2022-08-28T14:20:34.561Z,2.97
2022-08-28T14:23:00.976Z,2.73
2022-08-28T14:25:27.406Z,2.77
2022-08-28T14:27:55.707Z,3.17
2022-08-28T14:30:22.603Z,2.53
2022-08-28T14:32:49.001Z,2.80
2022-08-28T14:35:15.376Z,2.50
2022-08-28T14:37:41.891Z,3.30
2022-08-28T14:40:08.671Z,2.80
2022-08-28T14:42:35.180Z,2.33
2022-08-28T14:45:01.638Z,2.90
2022-08-28T14:47:28.269Z,3.10
2022-08-28T14:49:54.906Z,3.23
2022-08-28T14:52:22.413Z,2.77
2022-08-28T14:54:48.881Z,2.80
2022-08-28T14:57:15.276Z,2.67
2022-08-28T14:59:41.743Z,2.80
2022-08-28T15:02:08.193Z,2.93
2022-08-28T15:04:37.682Z,2.73
2022-08-28T15:07:06.521Z,2.80
2022-08-28T15:09:35.197Z,2.53
2022-08-28T15:12:01.641Z,2.43
2022-08-28T15:14:28.033Z,2.80
2022-08-28T15:16:54.485Z,2.50
2022-08-28T15:19:23.241Z,2.30
2022-08-28T15:21:51.216Z,2.70
2022-08-28T15:24:20.224Z,3.33
2022-08-28T15:26:46.888Z,2.60
2022-08-28T15:29:13.644Z,3.07
2022-08-28T15:31:42.263Z,2.70
2022-08-28T15:34:13.553Z,2.50
2022-08-28T15:36:40.897Z,2.70
2022-08-28T15:39:26.294Z,2.70
2022-08-28T15:41:52.870Z,2.40
2022-08-28T15:44:19.375Z,2.83
2022-08-28T15:46:51.104Z,2.17
2022-08-28T15:49:23.780Z,2.50
2022-08-28T15:51:50.755Z,2.40
2022-08-28T15:54:17.577Z,2.30
2022-08-28T15:56:44.278Z,2.97
2022-08-28T15:59:11.971Z,2.53
2022-08-28T16:01:38.706Z,2.40
2022-08-28T16:04:06.552Z,2.20
2022-08-28T16:06:33.833Z,2.47
2022-08-28T16:09:00.369Z,2.60
2022-08-28T16:11:26.827Z,2.87
2022-08-28T16:13:53.898Z,2.87
2022-08-28T16:16:20.807Z,2.50
2022-08-28T16:18:47.304Z,2.70
2022-08-28T16:21:14.133Z,2.90
2022-08-28T16:23:41.108Z,2.50
2022-08-28T16:26:07.979Z,2.83
2022-08-28T16:28:34.904Z,2.90
2022-08-28T16:31:07.356Z,2.63
2022-08-28T16:33:34.611Z,2.40
2022-08-28T16:36:03.631Z,2.30
2022-08-28T16:38:30.556Z,2.57
2022-08-28T16:40:57.156Z,2.33
2022-08-28T16:43:23.661Z,2.13
2022-08-28T16:45:50.986Z,2.13
2022-08-28T16:48:17.399Z,2.40
2022-08-28T16:50:44.893Z,2.80
2022-08-28T16:53:12.109Z,2.10
2022-08-28T16:55:40.377Z,2.50
2022-08-28T16:58:07.137Z,2.50
2022-08-28T17:00:33.887Z,2.10
2022-08-28T17:03:09.337Z,2.40
2022-08-28T17:05:36.542Z,2.20
2022-08-28T17:08:04.751Z,2.60
2022-08-28T17:10:31.532Z,3.00
2022-08-28T17:12:58.180Z,2.07
2022-08-28T17:15:24.787Z,2.20
2022-08-28T17:17:51.425Z,2.60
2022-08-28T17:20:36.300Z,1.93
2022-08-28T17:23:02.707Z,2.73
2022-08-28T17:25:29.332Z,2.17
2022-08-28T17:27:55.726Z,2.30
2022-08-28T17:30:22.182Z,2.57
2022-08-28T17:32:48.617Z,2.43
2022-08-28T17:35:15.363Z,2.50
2022-08-28T17:37:41.835Z,2.80
2022-08-28T17:40:09.553Z,2.40
2022-08-28T17:42:36.499Z,2.63
2022-08-28T17:45:06.095Z,2.00
2022-08-28T17:47:32.546Z,2.50
2022-08-28T17:49:59.819Z,2.50
2022-08-28T17:52:26.314Z,2.70
2022-08-28T17:54:53.368Z,2.60
2022-08-28T17:57:19.757Z,2.43
2022-08-28T17:59:46.232Z,2.53
2022-08-28T18:02:16.467Z,2.70
2022-08-28T18:04:43.704Z,2.60
2022-08-28T18:07:10.200Z,2.60
2022-08-28T18:09:36.623Z,2.80
2022-08-28T18:12:03.470Z,3.10
2022-08-28T18:14:30.135Z,3.43
2022-08-28T18:16:56.928Z,2.67
2022-08-28T18:19:24.045Z,2.50
2022-08-28T18:21:50.730Z,2.53
2022-08-28T18:24:17.235Z,3.30
2022-08-28T18:26:44.010Z,2.80
2022-08-28T18:29:10.884Z,3.00
2022-08-28T18:31:37.661Z,2.70
2022-08-28T18:34:04.167Z,3.47
2022-08-28T18:36:30.575Z,2.93
2022-08-28T18:38:57.853Z,3.00
2022-08-28T18:41:28.657Z,3.27
2022-08-28T18:44:09.419Z,3.07
2022-08-28T18:46:35.919Z,3.07
2022-08-28T18:49:02.436Z,3.17
2022-08-28T18:51:32.216Z,3.13
2022-08-28T18:54:00.872Z,3.00
2022-08-28T18:56:29.558Z,2.90
2022-08-28T18:58:59.315Z,3.20
2022-08-28T19:01:25.949Z,3.17
2022-08-28T19:03:53.495Z,3.57
2022-08-28T19:06:20.009Z,3.50
2022-08-28T19:08:46.542Z,3.20
2022-08-28T19:11:13.974Z,3.30
2022-08-28T19:13:41.701Z,3.40
2022-08-28T19:16:08.702Z,3.33
2022-08-28T19:18:35.109Z,2.97
2022-08-28T19:21:05.321Z,3.07
2022-08-28T19:23:32.064Z,3.30
2022-08-28T19:25:58.763Z,3.10
2022-08-28T19:28:25.304Z,2.87
2022-08-28T19:30:51.762Z,3.27
2022-08-28T19:33:18.360Z,3.17
2022-08-28T19:35:44.854Z,3.30
2022-08-28T19:38:11.243Z,3.13
2022-08-28T19:40:39.116Z,3.00
2022-08-28T19:43:05.913Z,3.30
2022-08-28T19:45:32.407Z,3.37
2022-08-28T19:47:59.343Z,3.23
2022-08-28T19:50:25.907Z,2.93
2022-08-28T19:52:52.305Z,3.17
2022-08-28T19:55:22.446Z,3.37
2022-08-28T19:57:49.355Z,3.53
2022-08-28T20:00:19.153Z,3.23
2022-08-28T20:02:46.029Z,3.77
2022-08-28T20:05:12.636Z,3.63
2022-08-28T20:07:39.092Z,3.10
2022-08-28T20:10:06.121Z,3.17
2022-08-28T20:12:32.492Z,2.73
2022-08-28T20:15:02.787Z,2.80
2022-08-28T20:17:29.966Z,2.67
2022-08-28T20:20:02.229Z,2.60
2022-08-28T20:22:29.516Z,2.80
2022-08-28T20:24:55.971Z,2.80
2022-08-28T20:27:22.327Z,3.10
2022-08-28T20:29:48.748Z,2.93
2022-08-28T20:32:15.139Z,3.40
2022-08-28T20:34:44.495Z,2.97
2022-08-28T20:37:11.287Z,3.13
2022-08-28T20:39:41.430Z,2.57
2022-08-28T20:42:09.316Z,2.17
2022-08-28T20:44:35.776Z,2.50
2022-08-28T20:47:02.203Z,2.70
2022-08-28T20:49:28.582Z,2.10
2022-08-28T20:51:58.758Z,2.10
2022-08-28T20:54:29.980Z,2.10
2022-08-28T20:56:57.636Z,2.50
2022-08-28T20:59:24.223Z,1.87
2022-08-28T21:01:56.083Z,1.90
2022-08-28T21:04:22.822Z,2.17
2022-08-28T21:06:49.310Z,1.93
2022-08-28T21:09:16.504Z,1.87
2022-08-28T21:11:43.124Z,2.07
2022-08-28T21:14:10.341Z,1.83
2022-08-28T21:16:37.690Z,1.83
2022-08-28T21:19:16.058Z,2.47
2022-08-28T21:21:43.992Z,1.90
2022-08-28T21:24:11.584Z,2.10
2022-08-28T21:26:40.350Z,2.13
2022-08-28T21:29:09.127Z,2.10
2022-08-28T21:31:35.543Z,1.90
2022-08-28T21:34:02.188Z,1.70
2022-08-28T21:36:28.623Z,1.77
2022-08-28T21:38:56.224Z,1.67
2022-08-28T21:41:22.606Z,1.87
2022-08-28T21:43:49.070Z,1.90
2022-08-28T21:46:16.029Z,1.77
2022-08-28T21:48:42.600Z,1.70
2022-08-28T21:51:10.460Z,1.80
2022-08-28T21:53:37.378Z,1.73
2022-08-28T21:56:04.802Z,1.63
2022-08-28T21:58:31.639Z,2.07
2022-08-28T22:00:58.351Z,2.00
2022-08-28T22:03:25.492Z,2.10
2022-08-28T22:05:52.310Z,2.27
2022-08-28T22:08:19.571Z,2.77
2022-08-28T22:10:46.515Z,2.33
2022-08-28T22:13:13.962Z,3.07
2022-08-28T22:15:41.320Z,3.67
2022-08-28T22:18:08.671Z,3.43
2022-08-28T22:20:36.033Z,3.17
2022-08-28T22:23:11.744Z,2.70
2022-08-28T22:25:41.131Z,2.50
2022-08-28T22:28:07.930Z,3.10
2022-08-28T22:30:34.602Z,2.23
2022-08-28T22:33:01.509Z,2.73
2022-08-28T22:35:28.308Z,2.60
2022-08-28T22:37:55.239Z,2.47
2022-08-28T22:40:22.277Z,2.63
2022-08-28T22:42:50.381Z,2.47
2022-08-28T22:45:20.460Z,2.53
2022-08-28T22:47:49.567Z,2.60
2022-08-28T22:50:16.334Z,2.40
2022-08-28T22:52:45.773Z,2.23
2022-08-28T22:55:12.702Z,2.53
2022-08-28T22:57:39.363Z,2.60
2022-08-28T23:00:16.878Z,2.27
2022-08-28T23:02:44.004Z,1.77
2022-08-28T23:05:10.537Z,1.90
2022-08-28T23:07:37.045Z,2.00
2022-08-28T23:10:04.532Z,1.87
2022-08-28T23:12:31.102Z,1.60
2022-08-28T23:14:57.521Z,1.93
2022-08-28T23:17:23.896Z,1.90
2022-08-28T23:19:50.824Z,1.70
2022-08-28T23:22:18.197Z,1.93
2022-08-28T23:24:46.402Z,2.17
2022-08-28T23:27:34.955Z,2.10
2022-08-28T23:29:59.531Z,2.40
2022-08-28T23:32:25.928Z,1.90
2022-08-28T23:34:52.310Z,2.00
2022-08-28T23:37:19.322Z,2.00
2022-08-28T23:39:46.231Z,2.10
2022-08-28T23:42:14.136Z,1.90
2022-08-28T23:44:40.540Z,1.83
2022-08-28T23:47:06.926Z,1.93
2022-08-28T23:49:33.830Z,1.93
2022-08-28T23:52:00.251Z,1.63
2022-08-28T23:54:27.815Z,1.67
2022-08-28T23:56:54.228Z,1.67
2022-08-28T23:59:22.770Z,1.70
